createdAt,value
2017-07-29T00:01:20.552Z,43.10
2017-07-29T00:03:48.068Z,42.86
2017-07-29T00:06:15.664Z,42.97
2017-07-29T00:08:43.201Z,43.13
2017-07-29T00:11:10.708Z,43.03
2017-07-29T00:13:38.264Z,43.03
2017-07-29T00:16:05.767Z,43.24
2017-07-29T00:18:33.261Z,43.25
2017-07-29T00:21:00.809Z,43.08
2017-07-29T00:23:28.301Z,43.36
2017-07-29T00:25:55.876Z,43.40
2017-07-29T00:28:23.376Z,43.33
2017-07-29T00:30:50.924Z,43.45
2017-07-29T00:33:18.479Z,43.35
2017-07-29T00:35:45.982Z,43.35
2017-07-29T00:38:13.528Z,43.42
2017-07-29T00:40:41.079Z,43.36
2017-07-29T00:43:08.589Z,43.49
2017-07-29T00:45:36.133Z,43.56
2017-07-29T00:48:03.633Z,43.68
2017-07-29T00:50:31.197Z,43.49
2017-07-29T00:52:58.700Z,43.47
2017-07-29T00:55:26.202Z,43.50
2017-07-29T00:57:53.784Z,43.63
2017-07-29T01:00:21.283Z,43.73
2017-07-29T01:02:48.781Z,43.54
2017-07-29T01:05:16.352Z,43.57
2017-07-29T01:07:43.897Z,43.63
2017-07-29T01:10:11.401Z,43.74
2017-07-29T01:12:38.897Z,43.84
2017-07-29T01:15:06.449Z,43.82
2017-07-29T01:17:33.949Z,43.96
2017-07-29T01:20:01.445Z,44.07
2017-07-29T01:22:29.006Z,43.97
2017-07-29T01:24:56.505Z,44.09
2017-07-29T01:27:24.009Z,44.05
2017-07-29T01:29:51.550Z,43.91
2017-07-29T01:32:19.093Z,44.12
2017-07-29T01:34:46.585Z,43.97
2017-07-29T01:37:14.121Z,43.92
2017-07-29T01:39:41.620Z,43.99
2017-07-29T01:42:09.178Z,43.85
2017-07-29T01:44:36.684Z,44.08
2017-07-29T01:47:04.193Z,44.25
2017-07-29T01:49:31.753Z,44.14
2017-07-29T01:51:59.248Z,44.27
2017-07-29T01:54:26.746Z,44.16
2017-07-29T01:56:54.299Z,44.26
2017-07-29T01:59:21.832Z,44.27
2017-07-29T02:01:49.377Z,44.42
2017-07-29T02:04:16.946Z,44.32
2017-07-29T02:06:44.446Z,44.39
2017-07-29T02:09:11.976Z,44.28
2017-07-29T02:11:39.519Z,44.44
2017-07-29T02:14:07.023Z,44.44
2017-07-29T02:16:34.525Z,44.44
2017-07-29T02:19:02.062Z,44.50
2017-07-29T02:21:29.623Z,44.32
2017-07-29T02:23:57.116Z,44.49
2017-07-29T02:26:24.609Z,44.44
2017-07-29T02:28:52.155Z,44.66
2017-07-29T02:31:19.658Z,44.44
2017-07-29T02:33:47.226Z,44.31
2017-07-29T02:36:14.725Z,44.50
2017-07-29T02:38:42.291Z,44.52
2017-07-29T02:41:09.869Z,44.77
2017-07-29T02:43:37.364Z,44.58
2017-07-29T02:46:04.861Z,44.55
2017-07-29T02:48:32.422Z,44.51
2017-07-29T02:50:59.920Z,44.70
2017-07-29T02:53:27.416Z,44.47
2017-07-29T02:55:54.977Z,44.45
2017-07-29T02:58:22.611Z,44.64
2017-07-29T03:00:50.121Z,44.53
2017-07-29T03:03:17.666Z,44.66
2017-07-29T03:05:45.173Z,44.52
2017-07-29T03:08:12.769Z,44.56
2017-07-29T03:10:40.277Z,44.59
2017-07-29T03:13:07.777Z,44.54
2017-07-29T03:15:35.321Z,44.53
2017-07-29T03:18:02.821Z,44.63
2017-07-29T03:20:30.332Z,44.70
2017-07-29T03:22:57.893Z,44.62
2017-07-29T03:25:25.461Z,44.61
2017-07-29T03:27:52.966Z,44.60
2017-07-29T03:30:20.550Z,44.72
2017-07-29T03:32:48.056Z,44.83
2017-07-29T03:35:15.557Z,45.12
2017-07-29T03:37:43.170Z,45.09
2017-07-29T03:40:10.675Z,45.06
2017-07-29T03:42:38.230Z,45.00
2017-07-29T03:45:05.726Z,45.24
2017-07-29T03:47:33.224Z,45.18
2017-07-29T03:50:00.829Z,44.95
2017-07-29T03:52:28.337Z,44.73
2017-07-29T03:54:55.841Z,44.67
2017-07-29T03:57:23.385Z,44.69
2017-07-29T03:59:50.910Z,44.59
2017-07-29T04:02:18.401Z,44.55
2017-07-29T04:04:45.940Z,44.48
2017-07-29T04:07:13.525Z,44.41
2017-07-29T04:09:41.032Z,44.30
2017-07-29T04:12:08.536Z,44.27
2017-07-29T04:14:36.080Z,44.18
2017-07-29T04:17:03.574Z,44.16
2017-07-29T04:19:31.074Z,44.17
2017-07-29T04:21:58.644Z,44.07
2017-07-29T04:24:26.152Z,44.03
2017-07-29T04:26:53.656Z,44.10
2017-07-29T04:29:21.190Z,43.98
2017-07-29T04:31:48.712Z,43.93
2017-07-29T04:34:16.241Z,43.87
2017-07-29T04:36:43.846Z,43.85
2017-07-29T04:39:11.430Z,43.81
2017-07-29T04:41:38.935Z,43.78
2017-07-29T04:44:06.440Z,43.66
2017-07-29T04:46:33.980Z,43.60
2017-07-29T04:49:01.498Z,43.53
2017-07-29T04:51:28.993Z,43.50
2017-07-29T04:53:56.541Z,43.49
2017-07-29T04:56:24.036Z,43.46
2017-07-29T04:58:51.529Z,43.46
2017-07-29T05:01:19.072Z,43.40
2017-07-29T05:03:46.565Z,43.41
2017-07-29T05:06:14.105Z,43.38
2017-07-29T05:08:41.689Z,43.32
2017-07-29T05:11:09.188Z,43.31
2017-07-29T05:13:36.687Z,43.28
2017-07-29T05:16:04.261Z,43.26
2017-07-29T05:18:31.816Z,43.27
2017-07-29T05:20:59.312Z,43.18
2017-07-29T05:23:26.821Z,43.16
2017-07-29T05:25:54.360Z,43.09
2017-07-29T05:28:21.865Z,43.10
2017-07-29T05:30:49.382Z,43.05
2017-07-29T05:33:16.924Z,43.03
2017-07-29T05:35:44.481Z,42.97
2017-07-29T05:38:11.974Z,42.94
2017-07-29T05:40:39.531Z,42.93
2017-07-29T05:43:07.032Z,42.95
2017-07-29T05:45:34.573Z,42.94
2017-07-29T05:48:02.145Z,42.89
2017-07-29T05:50:29.684Z,42.91
2017-07-29T05:52:57.229Z,42.88
2017-07-29T05:55:24.728Z,42.86
2017-07-29T05:57:52.269Z,42.82
2017-07-29T06:00:19.766Z,42.79
2017-07-29T06:02:47.315Z,42.86
2017-07-29T06:05:14.829Z,42.83
2017-07-29T06:07:42.332Z,42.84
2017-07-29T06:10:09.888Z,42.85
2017-07-29T06:12:37.396Z,42.82
2017-07-29T06:15:04.947Z,42.79
2017-07-29T06:17:32.452Z,42.85
2017-07-29T06:19:59.970Z,42.87
2017-07-29T06:22:27.694Z,42.87
2017-07-29T06:24:55.191Z,42.82
2017-07-29T06:27:22.692Z,42.83
2017-07-29T06:29:50.249Z,42.81
2017-07-29T06:32:17.796Z,42.78
2017-07-29T06:34:45.345Z,42.80
2017-07-29T06:37:12.900Z,42.76
2017-07-29T06:39:40.455Z,42.71
2017-07-29T06:42:08.000Z,42.73
2017-07-29T06:44:35.539Z,42.63
2017-07-29T06:47:03.085Z,42.77
2017-07-29T06:49:30.586Z,42.76
2017-07-29T06:51:58.089Z,42.74
2017-07-29T06:54:25.629Z,42.74
2017-07-29T06:56:53.133Z,42.72
2017-07-29T06:59:20.679Z,42.73
2017-07-29T07:01:48.325Z,42.69
2017-07-29T07:04:15.908Z,42.69
2017-07-29T07:06:43.505Z,42.72
2017-07-29T07:09:11.050Z,42.65
2017-07-29T07:11:38.553Z,42.71
2017-07-29T07:14:06.152Z,42.71
2017-07-29T07:16:33.653Z,42.69
2017-07-29T07:19:01.165Z,42.66
2017-07-29T07:21:28.733Z,42.67
2017-07-29T07:23:56.226Z,42.68
2017-07-29T07:26:23.723Z,42.68
2017-07-29T07:28:51.280Z,42.60
2017-07-29T07:31:18.782Z,42.63
2017-07-29T07:33:46.280Z,42.65
2017-07-29T07:36:13.822Z,42.63
2017-07-29T07:38:41.356Z,42.63
2017-07-29T07:41:08.896Z,42.61
2017-07-29T07:43:36.400Z,42.61
2017-07-29T07:46:03.896Z,42.59
2017-07-29T07:48:31.428Z,42.62
2017-07-29T07:50:58.937Z,42.58
2017-07-29T07:53:26.472Z,42.56
2017-07-29T07:55:53.964Z,42.55
2017-07-29T07:58:21.462Z,42.51
2017-07-29T08:00:49.001Z,42.48
2017-07-29T08:03:16.508Z,42.39
2017-07-29T08:05:44.061Z,42.31
2017-07-29T08:08:11.581Z,42.28
2017-07-29T08:10:39.104Z,42.17
2017-07-29T08:13:06.643Z,42.10
2017-07-29T08:15:34.184Z,42.04
2017-07-29T08:18:01.687Z,41.94
2017-07-29T08:20:29.240Z,41.93
2017-07-29T08:22:56.745Z,41.86
2017-07-29T08:25:24.236Z,41.78
2017-07-29T08:27:51.773Z,41.74
2017-07-29T08:30:19.317Z,41.65
2017-07-29T08:32:46.816Z,41.65
2017-07-29T08:35:14.328Z,41.61
2017-07-29T08:37:41.869Z,41.57
2017-07-29T08:40:09.364Z,41.54
2017-07-29T08:42:36.864Z,41.46
2017-07-29T08:45:04.409Z,41.44
2017-07-29T08:47:31.904Z,41.43
2017-07-29T08:49:59.428Z,41.39
2017-07-29T08:52:26.975Z,41.37
2017-07-29T08:54:54.473Z,41.37
2017-07-29T08:57:21.977Z,41.33
2017-07-29T08:59:49.537Z,41.28
2017-07-29T09:02:17.104Z,41.28
2017-07-29T09:04:44.659Z,41.31
2017-07-29T09:07:12.231Z,41.31
2017-07-29T09:09:39.720Z,41.26
2017-07-29T09:12:07.281Z,41.26
2017-07-29T09:14:34.788Z,41.25
2017-07-29T09:17:02.300Z,41.25
2017-07-29T09:19:29.854Z,41.25
2017-07-29T09:21:57.356Z,41.18
2017-07-29T09:24:24.854Z,41.22
2017-07-29T09:26:52.397Z,41.20
2017-07-29T09:29:19.890Z,41.16
2017-07-29T09:31:47.390Z,41.15
2017-07-29T09:34:14.985Z,41.12
2017-07-29T09:36:42.546Z,41.13
2017-07-29T09:39:10.045Z,41.13
2017-07-29T09:41:37.602Z,41.05
2017-07-29T09:44:05.097Z,41.05
2017-07-29T09:46:32.596Z,41.00
2017-07-29T09:49:00.189Z,40.93
2017-07-29T09:51:27.749Z,40.90
2017-07-29T09:53:55.249Z,40.97
2017-07-29T09:56:22.755Z,40.95
2017-07-29T09:58:50.296Z,40.95
2017-07-29T10:01:17.820Z,40.89
2017-07-29T10:03:45.354Z,40.88
2017-07-29T10:06:12.897Z,40.88
2017-07-29T10:08:40.388Z,40.86
2017-07-29T10:11:07.946Z,40.84
2017-07-29T10:13:35.444Z,40.83
2017-07-29T10:16:02.942Z,40.79
2017-07-29T10:18:30.492Z,40.78
2017-07-29T10:20:57.996Z,40.79
2017-07-29T10:23:25.490Z,40.80
2017-07-29T10:25:53.067Z,40.77
2017-07-29T10:28:20.569Z,40.71
2017-07-29T10:30:48.071Z,40.64
2017-07-29T10:33:15.638Z,40.53
2017-07-29T10:35:43.236Z,40.52
2017-07-29T10:38:10.732Z,40.54
2017-07-29T10:40:38.236Z,40.46
2017-07-29T10:43:05.776Z,40.40
2017-07-29T10:45:33.284Z,40.33
2017-07-29T10:48:00.825Z,40.29
2017-07-29T10:50:28.321Z,40.21
2017-07-29T10:52:55.817Z,40.18
2017-07-29T10:55:23.374Z,40.11
2017-07-29T10:57:50.875Z,40.06
2017-07-29T11:00:18.413Z,40.10
2017-07-29T11:02:45.960Z,40.17
2017-07-29T11:05:13.497Z,40.01
2017-07-29T11:07:41.024Z,39.96
2017-07-29T11:10:08.575Z,39.99
2017-07-29T11:12:36.102Z,39.98
2017-07-29T11:15:03.666Z,39.95
2017-07-29T11:17:31.186Z,39.92
2017-07-29T11:19:58.711Z,39.82
2017-07-29T11:22:26.259Z,39.85
2017-07-29T11:24:53.768Z,39.77
2017-07-29T11:27:21.264Z,39.74
2017-07-29T11:29:48.824Z,39.62
2017-07-29T11:32:16.333Z,39.62
2017-07-29T11:34:43.877Z,39.56
2017-07-29T11:37:11.377Z,39.57
2017-07-29T11:39:38.872Z,39.64
2017-07-29T11:42:06.400Z,39.66
2017-07-29T11:44:33.893Z,39.67
2017-07-29T11:47:01.447Z,39.58
2017-07-29T11:49:28.969Z,39.51
2017-07-29T11:51:56.499Z,39.52
2017-07-29T11:54:24.073Z,39.47
2017-07-29T11:56:51.630Z,39.40
2017-07-29T11:59:19.139Z,39.38
2017-07-29T12:01:46.637Z,39.35
2017-07-29T12:04:14.283Z,39.36
2017-07-29T12:06:41.824Z,39.32
2017-07-29T12:09:09.385Z,39.34
2017-07-29T12:11:36.881Z,39.34
2017-07-29T12:14:04.381Z,39.27
2017-07-29T12:16:31.925Z,39.20
2017-07-29T12:18:59.441Z,39.28
2017-07-29T12:21:26.941Z,39.24
2017-07-29T12:23:54.477Z,39.25
2017-07-29T12:26:21.978Z,39.21
2017-07-29T12:28:49.521Z,39.09
2017-07-29T12:31:17.026Z,39.19
2017-07-29T12:33:45.020Z,39.15
2017-07-29T12:36:12.582Z,39.15
2017-07-29T12:38:40.089Z,39.21
2017-07-29T12:41:07.633Z,39.20
2017-07-29T12:43:35.136Z,39.19
2017-07-29T12:46:02.645Z,39.21
2017-07-29T12:48:30.201Z,39.27
2017-07-29T12:50:57.716Z,39.23
2017-07-29T12:53:25.257Z,39.21
2017-07-29T12:55:52.795Z,39.18
2017-07-29T12:58:20.328Z,39.12
2017-07-29T13:00:47.841Z,39.05
2017-07-29T13:03:15.443Z,39.03
2017-07-29T13:05:43.251Z,38.99
2017-07-29T13:08:10.788Z,38.89
2017-07-29T13:10:38.358Z,38.89
2017-07-29T13:13:05.890Z,38.82
2017-07-29T13:15:33.420Z,38.81
2017-07-29T13:18:01.029Z,38.85
2017-07-29T13:20:28.552Z,38.74
2017-07-29T13:22:56.051Z,38.78
2017-07-29T13:25:23.613Z,38.74
2017-07-29T13:27:51.122Z,38.74
2017-07-29T13:30:18.696Z,38.65
2017-07-29T13:32:46.274Z,38.69
2017-07-29T13:35:13.856Z,38.67
2017-07-29T13:37:41.378Z,38.65
2017-07-29T13:40:08.936Z,38.62
2017-07-29T13:42:36.510Z,38.58
2017-07-29T13:45:04.032Z,38.56
2017-07-29T13:47:31.616Z,38.51
2017-07-29T13:49:59.171Z,38.43
2017-07-29T13:52:26.705Z,38.45
2017-07-29T13:54:54.252Z,38.42
2017-07-29T13:57:21.933Z,38.36
2017-07-29T13:59:49.549Z,38.33
2017-07-29T14:02:17.050Z,38.26
2017-07-29T14:04:44.589Z,38.28
2017-07-29T14:07:12.134Z,38.25
2017-07-29T14:09:39.638Z,38.20
2017-07-29T14:12:07.150Z,38.21
2017-07-29T14:14:34.698Z,38.22
2017-07-29T14:17:02.395Z,38.15
2017-07-29T14:19:30.118Z,38.13
2017-07-29T14:21:57.644Z,38.08
2017-07-29T14:24:25.240Z,38.11
2017-07-29T14:26:52.779Z,38.11
2017-07-29T14:29:20.277Z,38.07
2017-07-29T14:31:47.831Z,38.07
2017-07-29T14:34:15.391Z,37.96
2017-07-29T14:36:42.941Z,37.95
2017-07-29T14:39:10.493Z,37.93
2017-07-29T14:41:38.063Z,37.81
2017-07-29T14:44:05.580Z,37.87
2017-07-29T14:46:33.101Z,37.85
2017-07-29T14:49:00.644Z,37.75
2017-07-29T14:51:28.183Z,37.87
2017-07-29T14:53:55.729Z,37.83
2017-07-29T14:56:35.262Z,37.94
2017-07-29T14:59:02.832Z,37.87
2017-07-29T15:01:30.353Z,37.93
2017-07-29T15:03:57.850Z,37.85
2017-07-29T15:06:25.424Z,37.77
2017-07-29T15:08:52.999Z,37.68
2017-07-29T15:11:20.512Z,37.70
2017-07-29T15:13:48.084Z,37.70
2017-07-29T15:16:15.684Z,37.68
2017-07-29T15:18:43.182Z,37.69
2017-07-29T15:21:10.727Z,37.75
2017-07-29T15:23:38.230Z,37.71
2017-07-29T15:26:05.809Z,37.70
2017-07-29T15:28:33.310Z,37.73
2017-07-29T15:31:00.829Z,37.72
2017-07-29T15:33:28.376Z,37.63
2017-07-29T15:35:55.889Z,37.60
2017-07-29T15:38:23.437Z,37.63
2017-07-29T15:40:51.009Z,37.60
2017-07-29T15:43:18.544Z,37.55
2017-07-29T15:45:46.053Z,37.45
2017-07-29T15:48:13.816Z,37.38
2017-07-29T15:50:41.395Z,37.32
2017-07-29T15:53:08.947Z,37.30
2017-07-29T15:55:36.445Z,37.34
2017-07-29T15:58:04.020Z,37.37
2017-07-29T16:00:31.519Z,37.34
2017-07-29T16:02:59.035Z,37.35
2017-07-29T16:05:26.590Z,37.38
2017-07-29T16:07:54.112Z,37.40
2017-07-29T16:10:21.625Z,37.43
2017-07-29T16:12:49.197Z,37.38
2017-07-29T16:15:16.705Z,37.35
2017-07-29T16:17:44.233Z,37.32
2017-07-29T16:20:11.776Z,37.34
2017-07-29T16:22:39.329Z,37.31
2017-07-29T16:25:06.892Z,37.40
2017-07-29T16:27:34.388Z,37.32
2017-07-29T16:30:01.895Z,37.31
2017-07-29T16:32:29.431Z,37.31
2017-07-29T16:34:56.976Z,37.33
2017-07-29T16:37:24.527Z,37.45
2017-07-29T16:39:52.041Z,37.64
2017-07-29T16:42:19.540Z,37.52
2017-07-29T16:44:47.084Z,37.62
2017-07-29T16:47:14.706Z,37.51
2017-07-29T16:49:42.213Z,37.53
2017-07-29T16:52:09.781Z,37.40
2017-07-29T16:54:37.341Z,37.33
2017-07-29T16:57:04.845Z,37.26
2017-07-29T16:59:32.384Z,37.42
2017-07-29T17:01:59.920Z,37.59
2017-07-29T17:04:27.429Z,37.61
2017-07-29T17:06:54.964Z,37.66
2017-07-29T17:09:22.464Z,37.68
2017-07-29T17:11:50.005Z,37.72
2017-07-29T17:14:17.559Z,37.69
2017-07-29T17:16:45.061Z,37.78
2017-07-29T17:19:12.604Z,37.73
2017-07-29T17:21:40.136Z,37.69
2017-07-29T17:24:07.638Z,37.82
2017-07-29T17:26:35.175Z,37.81
2017-07-29T17:29:02.715Z,37.71
2017-07-29T17:31:30.245Z,37.85
2017-07-29T17:33:57.794Z,37.80
2017-07-29T17:36:25.337Z,37.87
2017-07-29T17:38:52.876Z,37.90
2017-07-29T17:41:20.402Z,37.82
2017-07-29T17:43:47.945Z,37.97
2017-07-29T17:46:15.453Z,37.97
2017-07-29T17:48:43.006Z,38.06
2017-07-29T17:51:10.513Z,37.76
2017-07-29T17:53:38.015Z,37.87
2017-07-29T17:56:05.562Z,37.99
2017-07-29T17:58:33.066Z,37.92
2017-07-29T18:01:00.561Z,37.87
2017-07-29T18:03:28.138Z,37.94
2017-07-29T18:05:55.637Z,37.99
2017-07-29T18:08:23.145Z,38.06
2017-07-29T18:10:50.691Z,38.12
2017-07-29T18:13:18.236Z,38.27
2017-07-29T18:15:45.833Z,38.30
2017-07-29T18:18:13.412Z,38.23
2017-07-29T18:20:40.917Z,38.28
2017-07-29T18:23:08.466Z,38.32
2017-07-29T18:25:35.981Z,38.45
2017-07-29T18:28:03.921Z,38.43
2017-07-29T18:30:31.524Z,38.49
2017-07-29T18:32:59.033Z,38.53
2017-07-29T18:35:26.549Z,38.62
2017-07-29T18:37:54.091Z,38.71
2017-07-29T18:40:21.595Z,38.71
2017-07-29T18:42:49.117Z,38.85
2017-07-29T18:45:16.686Z,38.94
2017-07-29T18:47:44.358Z,39.00
2017-07-29T18:50:11.864Z,39.09
2017-07-29T18:52:39.429Z,39.18
2017-07-29T18:55:07.005Z,39.26
2017-07-29T18:57:34.524Z,39.33
2017-07-29T19:00:02.033Z,39.31
2017-07-29T19:02:29.565Z,39.40
2017-07-29T19:04:57.102Z,39.43
2017-07-29T19:07:24.642Z,39.56
2017-07-29T19:09:52.207Z,39.60
2017-07-29T19:12:19.706Z,39.63
2017-07-29T19:14:47.295Z,39.70
2017-07-29T19:17:14.852Z,39.70
2017-07-29T19:19:42.405Z,39.77
2017-07-29T19:22:09.901Z,39.83
2017-07-29T19:24:37.432Z,39.80
2017-07-29T19:27:04.981Z,39.86
2017-07-29T19:29:32.527Z,39.96
2017-07-29T19:32:00.037Z,40.01
2017-07-29T19:34:27.550Z,40.02
2017-07-29T19:36:55.111Z,40.08
2017-07-29T19:39:22.607Z,40.09
2017-07-29T19:41:50.104Z,40.13
2017-07-29T19:44:17.734Z,40.25
2017-07-29T19:46:45.289Z,40.31
2017-07-29T19:49:12.880Z,40.38
2017-07-29T19:51:40.397Z,40.38
2017-07-29T19:54:07.957Z,40.43
2017-07-29T19:56:35.453Z,40.48
2017-07-29T19:59:02.949Z,40.52
2017-07-29T20:01:30.533Z,40.53
2017-07-29T20:03:58.036Z,40.55
2017-07-29T20:06:25.617Z,40.59
2017-07-29T20:08:53.116Z,40.66
2017-07-29T20:11:20.651Z,40.65
2017-07-29T20:13:48.202Z,40.76
2017-07-29T20:16:15.767Z,40.73
2017-07-29T20:18:43.265Z,41.02
2017-07-29T20:21:10.799Z,40.94
2017-07-29T20:23:38.329Z,41.06
2017-07-29T20:26:05.839Z,40.97
2017-07-29T20:28:33.393Z,41.16
2017-07-29T20:31:00.894Z,41.01
2017-07-29T20:33:28.401Z,41.13
2017-07-29T20:35:55.941Z,41.23
2017-07-29T20:38:23.443Z,41.26
2017-07-29T20:40:50.997Z,41.34
2017-07-29T20:43:18.601Z,41.52
2017-07-29T20:45:46.123Z,41.38
2017-07-29T20:48:13.707Z,41.63
2017-07-29T20:50:41.238Z,41.48
2017-07-29T20:53:08.740Z,41.50
2017-07-29T20:55:36.277Z,41.66
2017-07-29T20:58:03.774Z,41.62
2017-07-29T21:00:31.284Z,41.70
2017-07-29T21:02:58.818Z,41.66
2017-07-29T21:05:26.312Z,41.68
2017-07-29T21:07:53.810Z,41.63
2017-07-29T21:10:21.394Z,41.68
2017-07-29T21:12:48.910Z,41.82
2017-07-29T21:15:16.438Z,41.88
2017-07-29T21:17:44.076Z,41.85
2017-07-29T21:20:11.620Z,41.84
2017-07-29T21:22:39.120Z,42.03
2017-07-29T21:25:06.685Z,42.07
2017-07-29T21:27:34.184Z,41.87
2017-07-29T21:30:01.705Z,42.00
2017-07-29T21:32:29.266Z,42.12
2017-07-29T21:34:56.801Z,42.15
2017-07-29T21:37:24.309Z,42.22
2017-07-29T21:39:51.866Z,42.13
2017-07-29T21:42:19.397Z,42.18
2017-07-29T21:44:47.858Z,42.34
2017-07-29T21:47:15.402Z,42.12
2017-07-29T21:49:42.917Z,42.24
2017-07-29T21:52:10.423Z,42.36
2017-07-29T21:54:37.960Z,42.32
2017-07-29T21:57:05.488Z,42.40
2017-07-29T21:59:33.034Z,42.39
2017-07-29T22:02:00.570Z,42.44
2017-07-29T22:04:28.109Z,42.49
2017-07-29T22:06:55.669Z,42.44
2017-07-29T22:09:23.250Z,42.40
2017-07-29T22:11:50.749Z,42.46
2017-07-29T22:14:18.301Z,42.31
2017-07-29T22:16:45.805Z,42.39
2017-07-29T22:19:13.383Z,42.47
2017-07-29T22:21:40.922Z,42.47
2017-07-29T22:24:08.426Z,42.50
2017-07-29T22:26:35.925Z,42.55
2017-07-29T22:29:03.457Z,42.63
2017-07-29T22:31:31.017Z,42.63
2017-07-29T22:33:58.510Z,42.66
2017-07-29T22:36:26.005Z,42.67
2017-07-29T22:38:53.546Z,42.63
2017-07-29T22:41:21.081Z,42.73
2017-07-29T22:43:48.639Z,42.89
2017-07-29T22:46:16.139Z,42.91
2017-07-29T22:48:43.716Z,42.89
2017-07-29T22:51:11.221Z,42.85
2017-07-29T22:53:38.772Z,42.94
2017-07-29T22:56:06.289Z,42.96
2017-07-29T22:58:33.795Z,42.88
2017-07-29T23:01:01.333Z,42.83
2017-07-29T23:03:28.829Z,42.82
2017-07-29T23:05:56.322Z,42.96
2017-07-29T23:08:23.881Z,43.13
2017-07-29T23:10:51.420Z,43.25
2017-07-29T23:13:18.962Z,43.26
2017-07-29T23:15:46.517Z,43.32
2017-07-29T23:18:14.052Z,43.21
2017-07-29T23:20:41.548Z,43.22
2017-07-29T23:23:09.137Z,43.25
2017-07-29T23:25:36.633Z,43.28
2017-07-29T23:28:04.129Z,43.27
2017-07-29T23:30:31.677Z,43.19
2017-07-29T23:32:59.173Z,43.29
2017-07-29T23:35:26.668Z,43.25
2017-07-29T23:37:54.200Z,43.44
2017-07-29T23:40:21.707Z,43.50
2017-07-29T23:42:49.249Z,43.64
2017-07-29T23:45:16.748Z,43.56
2017-07-29T23:47:44.292Z,43.50
2017-07-29T23:50:11.788Z,43.51
2017-07-29T23:52:39.325Z,43.69
2017-07-29T23:55:06.871Z,43.45
2017-07-29T23:57:34.370Z,43.46
